Avalon, TX

10:51 AM CDT on May 25, 2015 (GMT -0500)
Sonny Sides | | Change Station
CLOSE
Current Station
Personal Weather Station
Location: Waxahachie, TX
Elevation: 610 ft
Nearby Weather Stations

Elev 610 ft 32.40 °N, 96.84 °W | Updated 10 minutes ago

Overcast
Overcast
76.6 °F
Feels Like 78 °F
N
2.7
Wind Variable Wind from SSW

Today
High -- | Low -- °F
--% Chance of Precip.
Yesterday
High -- | Low -- °F
Precip. -- in
6:23 AM 8:24 PM
Waxing Crescent, 49% visible
Pressure 29.93 in
Visibility 10.0 miles
Clouds Mostly Cloudy 1000 ft
Overcast 1600 ft
Heat Index 78 °F
Dew Point 71 °F
Humidity 84%
Rainfall 0.00 in
Snow Depth Not available.
UV 2 out of 12
Pollen 4.00 out of 12
Air Quality Not available.
Flu Activity Sporadic
METAR KJWY 251535Z AUTO 16011KT 10SM BKN010 OVC016 24/23 A2993 RMK AO2 T02360225

More Conditions Fewer Conditions

Pressure 29.93 in
Visibility 10.0 miles
Clouds Mostly Cloudy 1000 ft
Overcast 1600 ft
Heat Index 78 °F
Dew Point 71 °F
Humidity 84%
Rainfall 0.00 in
Snow Depth Not available.
UV 2 out of 12
Pollen 4.00 out of 12
Air Quality Not available.
Flu Activity Sporadic
METAR KJWY 251535Z AUTO 16011KT 10SM BKN010 OVC016 24/23 A2993 RMK AO2 T02360225

More Conditions Fewer Conditions

10-Day Weather Forecast

Almanac

Astronomy

May. 25, 2015 Rise Set
Actual Time
Civil Twilight
Nautical Twilight
Astronomical Twilight
Moon
Length of Visible Light
Length of Day
Tomorrow will be .
, % of the Moon is Illuminated

Today's Extremes

State Highs State Lows

Community

WunderPhotos

Upload Photos

1,824,028 photos uploaded!

WunderBlogs® & News

Nearby

Air Quality

  Air Quality AQ Index Pollutant
Not available.

Snow Depth

Station Depth Elevation

Earthquake Activity

City Distance Mag. Time & Date
Minimum magnitude displayed is 2.5.

Coastal Water Temperatures

Place Temperature

Stations

Nearby Weather Stations

Station Location Temp. Windchill Dew Point Humidity Wind Precip. Elev Updated Type